Time;durP1;ratioP1;P1;durP2;ratioP2;P2;SDS_P1;SDS_P2;PMS_P1;PMS_P2;Temp;Humidity;BMP_temperature;BMP_pressure;BME280_temperature;BME280_humidity;BME280_pressure;Samples;Min_cycle;Max_cycle;Signal;HPM_P1;HPM_P2
2023/06/29 00:00:23;;;;;;;6.45;3.72;;;461.70;2380.80;;;;;;5083972;28;20099;-73
2023/06/29 00:02:49;;;;;;;6.82;3.33;;;461.70;2380.80;;;;;;5077422;28;20025;-73
2023/06/29 00:05:15;;;;;;;5.72;3.22;;;461.70;2380.80;;;;;;5083776;28;20090;-72
2023/06/29 00:07:41;;;;;;;7.45;4.50;;;461.70;2380.80;;;;;;5081806;28;20024;-73
2023/06/29 00:10:09;;;;;;;6.93;4.03;;;486.40;2380.80;;;;;;5078910;28;20033;-73
2023/06/29 00:12:36;;;;;;;6.88;3.58;;;461.70;2380.80;;;;;;5082672;28;20016;-73
2023/06/29 00:15:02;;;;;;;6.60;3.60;;;486.40;2380.80;;;;;;5079272;28;20035;-72
2023/06/29 00:17:28;;;;;;;8.18;3.85;;;486.40;2380.80;;;;;;5075876;28;20493;-72
2023/06/29 00:19:53;;;;;;;8.00;3.53;;;486.40;2380.80;;;;;;5076717;28;20036;-75
2023/06/29 00:22:19;;;;;;;5.13;3.13;;;486.40;2380.80;;;;;;5076735;28;20181;-73
2023/06/29 00:24:54;;;;;;;7.75;3.97;;;486.50;2380.80;;;;;;5075925;28;20024;-74
2023/06/29 00:27:21;;;;;;;6.97;3.57;;;486.40;2380.80;;;;;;5078282;28;20052;-74
2023/06/29 00:29:46;;;;;;;5.32;3.15;;;486.40;2380.80;;;;;;5075565;28;20284;-72
2023/06/29 00:32:13;;;;;;;9.50;3.30;;;486.50;2380.80;;;;;;5088324;28;20027;-74
2023/06/29 00:34:39;;;;;;;9.35;3.88;;;486.50;2380.80;;;;;;5080073;28;20604;-76
2023/06/29 00:37:05;;;;;;;4.60;3.10;;;486.40;2380.80;;;;;;5076999;28;20023;-73
2023/06/29 00:39:32;;;;;;;4.72;3.58;;;486.40;2380.80;;;;;;5076643;28;20016;-73
2023/06/29 00:41:58;;;;;;;7.35;3.70;;;461.70;2380.80;;;;;;5079971;28;20028;-72
2023/06/29 00:44:23;;;;;;;7.05;3.55;;;461.70;2380.80;;;;;;5073880;28;20028;-72
2023/06/29 00:46:51;;;;;;;6.60;3.60;;;461.70;2380.80;;;;;;5075581;28;20028;-72
2023/06/29 00:49:18;;;;;;;5.28;3.30;;;461.70;2380.80;;;;;;5075494;28;20029;-73
2023/06/29 00:51:48;;;;;;;7.35;3.67;;;461.70;2380.80;;;;;;5073442;28;20043;-72
2023/06/29 00:54:14;;;;;;;6.45;3.53;;;461.70;2380.80;;;;;;5081519;28;20016;-73
2023/06/29 00:56:42;;;;;;;5.00;3.45;;;461.70;2380.80;;;;;;5076430;28;20056;-74
2023/06/29 00:59:08;;;;;;;5.03;3.22;;;461.70;2380.80;;;;;;5081415;28;20028;-73
2023/06/29 01:01:33;;;;;;;9.88;3.58;;;461.70;2380.80;;;;;;5075963;28;20517;-73
2023/06/29 01:03:59;;;;;;;4.90;3.20;;;486.40;2380.80;;;;;;5078117;28;20020;-73
2023/06/29 01:06:31;;;;;;;5.90;3.25;;;461.70;2380.80;;;;;;5077929;28;20016;-73
2023/06/29 01:09:04;;;;;;;6.03;3.00;;;461.70;2380.80;;;;;;5077361;28;20016;-73
2023/06/29 01:11:34;;;;;;;5.35;3.42;;;461.50;2380.80;;;;;;5077500;28;20024;-73
2023/06/29 01:14:03;;;;;;;6.97;4.30;;;461.40;2380.80;;;;;;5073112;28;20078;-77
2023/06/29 01:16:33;;;;;;;9.75;4.30;;;461.40;2380.80;;;;;;5075904;28;20020;-74
2023/06/29 01:19:04;;;;;;;5.70;4.15;;;461.50;2380.80;;;;;;5072318;28;20033;-73
2023/06/29 01:21:35;;;;;;;5.70;4.13;;;461.60;2380.80;;;;;;5073638;28;20108;-79
2023/06/29 01:24:03;;;;;;;8.63;4.50;;;461.70;2380.80;;;;;;5073068;28;20122;-72
2023/06/29 01:26:29;;;;;;;9.88;4.95;;;461.70;2380.80;;;;;;5073212;28;20036;-76
2023/06/29 01:28:56;;;;;;;8.43;5.03;;;461.70;2380.80;;;;;;5073251;28;20029;-70
2023/06/29 01:31:26;;;;;;;10.70;4.85;;;461.70;2380.80;;;;;;5073484;28;20066;-72
2023/06/29 01:33:53;;;;;;;8.88;4.10;;;461.60;2380.80;;;;;;5073440;28;20096;-73
2023/06/29 01:36:26;;;;;;;9.10;4.93;;;486.60;2380.80;;;;;;5073197;28;20074;-73
2023/06/29 01:39:01;;;;;;;10.45;4.80;;;461.70;2380.80;;;;;;5073438;28;20017;-73
2023/06/29 01:41:29;;;;;;;9.27;5.03;;;461.70;2380.80;;;;;;5073177;28;20025;-72
2023/06/29 01:43:56;;;;;;;11.52;5.00;;;486.40;2380.80;;;;;;5073217;28;20016;-73
2023/06/29 01:46:22;;;;;;;9.75;5.80;;;461.60;2380.80;;;;;;5073223;28;20038;-73
2023/06/29 01:48:50;;;;;;;13.02;5.18;;;461.60;2380.80;;;;;;5073211;28;20466;-76
2023/06/29 01:51:16;;;;;;;12.00;4.90;;;461.60;2380.80;;;;;;5072864;28;20173;-73
2023/06/29 01:53:41;;;;;;;9.40;4.53;;;461.60;2380.80;;;;;;5072897;28;20056;-72
2023/06/29 01:56:07;;;;;;;11.95;4.72;;;461.60;2380.80;;;;;;5072676;28;20106;-80
2023/06/29 01:58:33;;;;;;;11.25;6.00;;;461.60;2380.80;;;;;;5072894;28;20025;-84
2023/06/29 02:00:58;;;;;;;9.85;5.07;;;461.60;2380.80;;;;;;5072563;28;20033;-77
2023/06/29 02:03:24;;;;;;;9.77;4.80;;;461.50;2380.80;;;;;;5076942;28;20021;-72
2023/06/29 02:05:50;;;;;;;9.43;5.88;;;461.40;2380.80;;;;;;5077017;28;20067;-72
2023/06/29 02:08:15;;;;;;;9.23;4.93;;;461.40;2380.80;;;;;;5076619;28;20035;-76
2023/06/29 02:10:41;;;;;;;8.30;5.15;;;461.40;2380.80;;;;;;5076643;28;20029;-73
2023/06/29 02:13:07;;;;;;;7.75;5.55;;;461.30;2380.80;;;;;;5076917;28;20056;-84
2023/06/29 02:15:33;;;;;;;9.10;5.35;;;461.30;2380.80;;;;;;5077028;28;20023;-72
2023/06/29 02:17:58;;;;;;;8.88;5.05;;;461.20;2380.80;;;;;;5076583;28;20103;-73
2023/06/29 02:20:24;;;;;;;9.70;5.90;;;461.20;2380.80;;;;;;5076402;28;20036;-73
2023/06/29 02:22:50;;;;;;;8.70;4.82;;;461.20;2380.80;;;;;;5076367;28;20537;-77
2023/06/29 02:25:17;;;;;;;10.25;5.57;;;461.20;2380.80;;;;;;5076162;28;20031;-73
2023/06/29 02:27:42;;;;;;;10.75;6.68;;;461.20;2380.80;;;;;;5076333;28;20029;-73
2023/06/29 02:30:09;;;;;;;8.63;5.18;;;461.30;2380.80;;;;;;5076220;28;20029;-72
2023/06/29 02:32:34;;;;;;;11.60;5.63;;;461.30;2380.80;;;;;;5076360;28;20024;-72
2023/06/29 02:35:00;;;;;;;11.07;4.65;;;461.30;2380.80;;;;;;5076288;28;20374;-79
2023/06/29 02:37:26;;;;;;;11.70;4.50;;;461.30;2380.80;;;;;;5076142;28;20470;-77
2023/06/29 02:39:51;;;;;;;15.35;6.18;;;461.20;2380.80;;;;;;5076162;28;20031;-72
2023/06/29 02:42:17;;;;;;;10.02;5.68;;;461.20;2380.80;;;;;;5076049;28;20025;-84
2023/06/29 02:44:43;;;;;;;10.88;5.88;;;461.10;2380.80;;;;;;5076126;28;20181;-76
2023/06/29 02:47:08;;;;;;;8.52;5.15;;;461.10;2380.80;;;;;;5076223;28;20046;-73
2023/06/29 02:49:34;;;;;;;10.38;5.07;;;461.10;2380.80;;;;;;5076021;28;20115;-72
2023/06/29 02:52:00;;;;;;;10.50;5.57;;;461.00;2380.80;;;;;;5075662;28;20070;-75
2023/06/29 02:54:25;;;;;;;13.55;6.35;;;460.90;2380.80;;;;;;5075571;28;20031;-72
2023/06/29 02:56:51;;;;;;;10.07;5.68;;;460.90;2380.80;;;;;;5074111;28;20079;-73
2023/06/29 02:59:16;;;;;;;14.43;5.35;;;460.90;2380.80;;;;;;5075819;28;20432;-72
2023/06/29 03:01:42;;;;;;;13.70;6.07;;;460.90;2380.80;;;;;;5075634;28;20429;-79
2023/06/29 03:04:08;;;;;;;9.48;5.63;;;460.90;2380.80;;;;;;5075732;28;20077;-72
2023/06/29 03:06:33;;;;;;;11.27;5.75;;;460.80;2380.80;;;;;;5075655;28;20024;-74
2023/06/29 03:08:59;;;;;;;14.77;6.03;;;460.80;2380.80;;;;;;5075565;28;20029;-71
2023/06/29 03:11:25;;;;;;;9.57;6.05;;;460.90;2380.80;;;;;;5075104;28;20056;-73
2023/06/29 03:13:51;;;;;;;11.95;6.45;;;460.80;2380.80;;;;;;5075535;28;20098;-73
2023/06/29 03:16:17;;;;;;;12.55;6.35;;;460.90;2380.80;;;;;;5075433;28;20502;-73
2023/06/29 03:18:42;;;;;;;13.25;7.13;;;460.90;2380.80;;;;;;5075582;28;20027;-76
2023/06/29 03:21:09;;;;;;;11.70;6.40;;;460.90;2380.80;;;;;;5075366;28;20024;-73
2023/06/29 03:23:34;;;;;;;13.68;5.90;;;460.90;2380.80;;;;;;5074919;28;20062;-75
2023/06/29 03:26:00;;;;;;;11.13;5.88;;;460.90;2380.80;;;;;;5075120;28;20028;-73
2023/06/29 03:28:26;;;;;;;18.90;7.43;;;461.00;2380.80;;;;;;5075267;28;20021;-73
2023/06/29 03:30:52;;;;;;;9.65;5.97;;;460.90;2380.80;;;;;;5075393;28;20543;-75
2023/06/29 03:33:18;;;;;;;11.88;7.15;;;460.90;2380.80;;;;;;5075325;28;20033;-73
2023/06/29 03:35:43;;;;;;;10.82;5.85;;;460.90;2380.80;;;;;;5075211;28;20064;-75
2023/06/29 03:38:09;;;;;;;12.77;6.53;;;460.90;2380.80;;;;;;5075130;28;20020;-75
2023/06/29 03:40:35;;;;;;;11.40;6.68;;;460.90;2380.80;;;;;;5075087;28;20035;-73
2023/06/29 03:43:02;;;;;;;13.02;6.80;;;461.10;2380.80;;;;;;5075080;28;20016;-72
2023/06/29 03:45:27;;;;;;;11.85;6.47;;;461.10;2380.80;;;;;;5075334;28;20377;-73
2023/06/29 03:47:53;;;;;;;9.00;6.60;;;461.00;2380.80;;;;;;5075197;28;20103;-73
2023/06/29 03:50:19;;;;;;;11.32;6.53;;;461.10;2380.80;;;;;;5074785;28;20048;-83
2023/06/29 03:52:44;;;;;;;13.45;6.43;;;461.10;2380.80;;;;;;5068131;28;20097;-73
2023/06/29 03:55:10;;;;;;;9.95;5.07;;;461.10;2380.80;;;;;;5068410;28;20177;-74
2023/06/29 03:57:36;;;;;;;10.07;5.95;;;461.20;2380.80;;;;;;5074735;28;20023;-73
2023/06/29 04:00:03;;;;;;;9.10;5.78;;;461.20;2380.80;;;;;;5074639;28;20052;-72
2023/06/29 04:02:28;;;;;;;9.30;5.55;;;461.30;2380.80;;;;;;5074768;28;20036;-72
2023/06/29 04:04:54;;;;;;;10.02;6.07;;;461.30;2380.80;;;;;;5074592;28;20117;-73
2023/06/29 04:07:20;;;;;;;8.93;5.43;;;461.30;2380.80;;;;;;5074644;28;20024;-73
2023/06/29 04:09:46;;;;;;;13.88;5.75;;;461.30;2380.80;;;;;;5074330;28;20036;-73
2023/06/29 04:12:12;;;;;;;13.45;7.13;;;461.30;2380.80;;;;;;5074497;28;20485;-72
2023/06/29 04:14:37;;;;;;;11.18;6.15;;;461.30;2380.80;;;;;;5074288;28;20036;-72
2023/06/29 04:17:03;;;;;;;9.63;5.43;;;461.40;2380.80;;;;;;5067349;28;20029;-80
2023/06/29 04:19:29;;;;;;;12.40;6.10;;;461.40;2380.80;;;;;;5068276;28;20109;-72
2023/06/29 04:21:55;;;;;;;9.65;6.15;;;461.40;2380.80;;;;;;5074333;28;20020;-76
2023/06/29 04:24:21;;;;;;;13.82;5.55;;;461.50;2380.80;;;;;;5059799;28;20390;-73
2023/06/29 04:26:46;;;;;;;10.38;5.72;;;461.50;2380.80;;;;;;5067400;28;20117;-73
2023/06/29 04:29:12;;;;;;;11.52;5.90;;;461.50;2380.80;;;;;;5067769;28;20036;-73
2023/06/29 04:31:38;;;;;;;11.50;6.57;;;461.60;2380.80;;;;;;5074199;28;20374;-84
2023/06/29 04:34:03;;;;;;;12.23;4.82;;;461.70;2380.80;;;;;;5073958;28;20137;-85
2023/06/29 04:36:30;;;;;;;10.55;4.95;;;461.70;2380.80;;;;;;5074332;28;20024;-73
2023/06/29 04:38:55;;;;;;;10.77;4.07;;;461.70;2380.80;;;;;;5074171;28;20028;-73
2023/06/29 04:41:30;;;;;;;7.72;4.30;;;486.40;2380.80;;;;;;5073685;28;20025;-82
2023/06/29 04:44:00;;;;;;;7.30;4.47;;;486.50;2380.80;;;;;;5074085;28;20016;-73
2023/06/29 04:46:28;;;;;;;9.65;5.13;;;486.50;2380.80;;;;;;5073960;28;20474;-74
2023/06/29 04:48:54;;;;;;;7.13;4.28;;;486.50;2380.80;;;;;;5073788;28;20445;-73
2023/06/29 04:51:20;;;;;;;9.52;4.93;;;486.50;2380.80;;;;;;5073968;28;20501;-83
2023/06/29 04:53:45;;;;;;;7.88;4.82;;;486.50;2380.80;;;;;;5073613;28;20029;-72
2023/06/29 04:56:12;;;;;;;13.43;4.72;;;486.60;2380.80;;;;;;5073631;28;20052;-74
2023/06/29 04:58:37;;;;;;;9.75;4.72;;;486.60;2380.80;;;;;;5073857;28;20025;-73
2023/06/29 05:01:04;;;;;;;7.15;4.03;;;486.60;2380.80;;;;;;5073714;28;20421;-78
2023/06/29 05:03:30;;;;;;;10.02;3.88;;;486.70;2380.80;;;;;;5073459;28;20028;-73
2023/06/29 05:05:55;;;;;;;6.72;4.68;;;486.70;2380.80;;;;;;5072831;28;20467;-72
2023/06/29 05:08:21;;;;;;;12.45;4.03;;;486.80;2380.80;;;;;;5073594;28;20474;-82
2023/06/29 05:10:47;;;;;;;8.65;3.70;;;486.80;2380.80;;;;;;5073107;28;20394;-73
2023/06/29 05:13:13;;;;;;;8.10;4.43;;;486.90;2380.80;;;;;;5062015;28;20033;-78
2023/06/29 05:15:38;;;;;;;8.35;3.45;;;486.90;2380.80;;;;;;5071743;28;20024;-76
2023/06/29 05:18:04;;;;;;;7.93;4.28;;;487.00;2380.80;;;;;;5080177;28;20023;-74
2023/06/29 05:20:30;;;;;;;8.88;4.25;;;487.00;2380.80;;;;;;5079620;28;20046;-72
2023/06/29 05:22:55;;;;;;;5.07;3.85;;;487.00;2380.80;;;;;;5084422;28;20389;-72
2023/06/29 05:25:21;;;;;;;6.53;3.92;;;487.10;2380.80;;;;;;5075585;28;20421;-72
2023/06/29 05:27:47;;;;;;;8.45;4.50;;;487.10;2380.80;;;;;;5074069;28;20055;-79
2023/06/29 05:30:13;;;;;;;7.95;4.47;;;487.20;2380.80;;;;;;5077256;28;20414;-72
2023/06/29 05:32:39;;;;;;;8.15;3.97;;;487.30;2380.80;;;;;;5075705;28;20022;-72
2023/06/29 05:35:04;;;;;;;5.10;3.70;;;512.00;2380.80;;;;;;5075140;28;20028;-71
2023/06/29 05:37:31;;;;;;;9.70;5.03;;;512.10;2380.80;;;;;;5086740;28;20013;-76
2023/06/29 05:39:57;;;;;;;7.22;3.83;;;512.00;2380.80;;;;;;5084086;28;20488;-73
2023/06/29 05:42:23;;;;;;;9.48;3.50;;;512.10;2380.80;;;;;;5077490;28;20073;-71
2023/06/29 05:44:49;;;;;;;6.53;3.35;;;512.20;2380.80;;;;;;5081400;28;20039;-71
2023/06/29 05:47:15;;;;;;;6.40;3.40;;;512.30;2380.80;;;;;;5076007;28;20055;-71
2023/06/29 05:49:40;;;;;;;5.82;3.35;;;512.30;2380.80;;;;;;5075970;28;20051;-72
2023/06/29 05:52:06;;;;;;;6.13;3.33;;;512.40;2380.80;;;;;;5079327;28;20023;-71
2023/06/29 05:54:32;;;;;;;7.10;3.60;;;512.60;2380.80;;;;;;5078657;28;20496;-71
2023/06/29 05:56:58;;;;;;;5.53;3.05;;;512.70;2380.80;;;;;;5076070;28;20037;-71
2023/06/29 05:59:24;;;;;;;8.00;4.13;;;512.80;2380.80;;;;;;5079478;28;20050;-71
2023/06/29 06:01:49;;;;;;;5.57;2.67;;;512.90;2380.80;;;;;;5074244;28;20086;-76
2023/06/29 06:04:15;;;;;;;7.35;2.75;;;537.60;2406.40;;;;;;5086955;28;20099;-71
2023/06/29 06:06:41;;;;;;;4.53;2.65;;;537.60;2406.40;;;;;;5077882;28;20021;-71
2023/06/29 06:09:06;;;;;;;10.57;3.60;;;537.80;2406.40;;;;;;5076370;28;20029;-71
2023/06/29 06:11:32;;;;;;;4.75;2.67;;;537.90;2406.40;;;;;;5079947;28;20028;-73
2023/06/29 06:13:58;;;;;;;5.55;2.63;;;538.00;2406.40;;;;;;5076168;28;20020;-71
2023/06/29 06:16:24;;;;;;;4.40;2.85;;;538.10;2406.40;;;;;;5077843;28;20478;-73
2023/06/29 06:18:49;;;;;;;8.13;2.97;;;538.30;2406.40;;;;;;5072848;28;20456;-71
2023/06/29 06:21:15;;;;;;;8.27;3.38;;;538.30;2406.40;;;;;;5075003;28;20020;-71
2023/06/29 06:23:41;;;;;;;3.83;2.30;;;538.40;2406.40;;;;;;5076545;28;20425;-72
2023/06/29 06:26:07;;;;;;;4.57;2.75;;;538.40;2406.40;;;;;;5086053;28;20119;-75
2023/06/29 06:28:33;;;;;;;3.97;2.42;;;538.40;2406.40;;;;;;5074980;28;20120;-71
2023/06/29 06:30:59;;;;;;;5.55;2.78;;;538.50;2406.40;;;;;;5072548;28;20486;-72
2023/06/29 06:33:24;;;;;;;5.95;2.45;;;538.50;2406.40;;;;;;5083337;28;20025;-72
2023/06/29 06:35:50;;;;;;;4.97;2.72;;;563.20;2432.00;;;;;;5075487;28;20020;-72
2023/06/29 06:38:16;;;;;;;6.60;2.90;;;563.20;2432.00;;;;;;5074162;28;20409;-71
2023/06/29 06:40:41;;;;;;;7.32;2.53;;;563.30;2432.00;;;;;;5079638;28;20032;-71
2023/06/29 06:43:07;;;;;;;7.82;3.33;;;563.40;2432.00;;;;;;5084180;28;20021;-74
2023/06/29 06:45:33;;;;;;;7.43;3.03;;;563.50;2432.00;;;;;;5079352;28;20027;-71
2023/06/29 06:47:59;;;;;;;3.60;2.63;;;;;;;;;;5082341;28;20032;-72
2023/06/29 06:50:24;;;;;;;4.30;2.78;;;563.60;2432.00;;;;;;5081699;28;20028;-72
2023/06/29 06:52:50;;;;;;;9.43;3.30;;;563.80;2432.00;;;;;;5081216;28;20515;-73
2023/06/29 06:55:16;;;;;;;4.97;2.83;;;563.80;2432.00;;;;;;5084505;28;20076;-74
2023/06/29 06:57:41;;;;;;;3.75;2.40;;;563.90;2432.00;;;;;;5080793;28;20394;-73
2023/06/29 07:00:12;;;;;;;3.72;2.45;;;563.90;2432.00;;;;;;5080687;28;20103;-74
2023/06/29 07:02:38;;;;;;;8.95;2.83;;;564.00;2432.00;;;;;;5080388;28;20146;-73
2023/06/29 07:05:05;;;;;;;5.38;2.75;;;564.10;2432.00;;;;;;5078230;28;20066;-72
2023/06/29 07:07:31;;;;;;;7.25;2.53;;;564.10;2432.00;;;;;;5081677;28;20028;-76
2023/06/29 07:09:56;;;;;;;4.00;1.92;;;588.90;2432.00;;;;;;5080296;28;20115;-76
2023/06/29 07:12:22;;;;;;;3.80;2.53;;;588.80;2432.00;;;;;;5078015;28;20538;-76
2023/06/29 07:14:49;;;;;;;5.68;2.85;;;589.00;2432.00;;;;;;5083786;28;20432;-72
2023/06/29 07:17:14;;;;;;;5.15;2.50;;;589.20;2432.00;;;;;;5073870;28;20024;-72
2023/06/29 07:19:40;;;;;;;4.20;1.90;;;589.30;2432.00;;;;;;5081946;28;20072;-74
2023/06/29 07:22:06;;;;;;;4.85;2.72;;;589.30;2406.40;;;;;;5080340;28;20020;-73
2023/06/29 07:24:32;;;;;;;6.75;2.60;;;589.40;2432.00;;;;;;5080686;28;20418;-73
2023/06/29 07:26:58;;;;;;;3.78;2.30;;;589.50;2432.00;;;;;;5077828;28;20025;-75
2023/06/29 07:29:24;;;;;;;5.80;4.00;;;589.60;2355.20;;;;;;5078918;28;20032;-75
2023/06/29 07:31:49;;;;;;;9.77;4.55;;;589.70;2380.80;;;;;;5077447;28;20027;-74
2023/06/29 07:34:15;;;;;;;3.53;1.80;;;589.70;2329.60;;;;;;5077890;28;20485;-75
2023/06/29 07:36:41;;;;;;;5.05;2.88;;;614.40;2278.40;;;;;;5076496;28;20024;-72
2023/06/29 07:39:07;;;;;;;4.63;2.38;;;614.50;2304.00;;;;;;5084429;28;20153;-73
2023/06/29 07:41:32;;;;;;;4.13;2.20;;;614.50;2227.20;;;;;;5076391;28;20451;-75
2023/06/29 07:43:59;;;;;;;6.38;2.80;;;614.60;2252.80;;;;;;5078705;28;20024;-73
2023/06/29 07:46:25;;;;;;;7.15;2.30;;;614.70;2227.20;;;;;;5078181;28;20030;-75
2023/06/29 07:48:51;;;;;;;3.80;2.03;;;614.80;2124.80;;;;;;5077117;28;20394;-74
2023/06/29 07:51:17;;;;;;;5.32;2.33;;;614.80;2150.40;;;;;;5078814;28;20020;-73
2023/06/29 07:53:44;;;;;;;3.75;1.95;;;;;;;;;;5076422;28;20028;-75
2023/06/29 07:56:10;;;;;;;5.03;2.38;;;;;;;;;;5079399;28;20056;-74
2023/06/29 07:58:36;;;;;;;5.78;2.33;;;;;;;;;;5077222;28;20036;-73
2023/06/29 08:01:02;;;;;;;4.18;2.50;;;;;;;;;;5076924;28;20020;-78
2023/06/29 08:03:29;;;;;;;7.28;2.50;;;;;;;;;;5079057;28;20028;-77
2023/06/29 08:05:55;;;;;;;4.75;2.28;;;615.10;2099.20;;;;;;5086257;28;20020;-72
2023/06/29 08:08:21;;;;;;;6.72;2.30;;;;;;;;;;5081095;28;20536;-73
2023/06/29 08:10:48;;;;;;;6.13;2.28;;;640.00;2073.60;;;;;;5075424;28;20079;-73
2023/06/29 08:13:15;;;;;;;5.10;1.90;;;640.10;1971.20;;;;;;5078881;28;20020;-74
2023/06/29 08:15:41;;;;;;;4.85;2.00;;;640.00;1920.00;;;;;;5079263;28;20048;-73
2023/06/29 08:18:06;;;;;;;3.83;2.05;;;640.10;1920.00;;;;;;5077954;28;20063;-73
2023/06/29 08:20:32;;;;;;;5.43;2.25;;;640.10;1996.80;;;;;;5084198;28;20364;-74
2023/06/29 08:22:58;;;;;;;6.43;2.30;;;640.10;1996.80;;;;;;5085432;28;20485;-74
2023/06/29 08:25:24;;;;;;;3.30;2.00;;;640.20;1945.60;;;;;;5081062;28;20028;-77
2023/06/29 08:27:50;;;;;;;3.38;1.90;;;640.20;1894.40;;;;;;5075879;28;20090;-75
2023/06/29 08:30:16;;;;;;;4.80;2.20;;;640.20;1868.80;;;;;;5076034;28;20028;-73
2023/06/29 08:32:43;;;;;;;4.45;2.10;;;640.20;1817.60;;;;;;5078460;28;20050;-75
2023/06/29 08:35:09;;;;;;;4.72;2.50;;;640.20;1920.00;;;;;;5076883;28;20029;-76
2023/06/29 08:37:35;;;;;;;4.15;2.20;;;640.00;1894.40;;;;;;5077034;28;20036;-78
2023/06/29 08:40:03;;;;;;;5.70;2.20;;;615.30;1894.40;;;;;;5078371;28;20025;-75
2023/06/29 08:42:29;;;;;;;8.27;2.35;;;640.00;1843.20;;;;;;5081671;28;20016;-77
2023/06/29 08:44:54;;;;;;;5.40;2.28;;;640.10;1843.20;;;;;;5073290;28;20474;-73
2023/06/29 08:47:20;;;;;;;3.78;1.75;;;640.20;1843.20;;;;;;5076378;28;20162;-73
2023/06/29 08:49:47;;;;;;;4.82;2.50;;;640.20;1740.80;;;;;;5076383;28;20390;-74
2023/06/29 08:52:18;;;;;;;3.35;2.08;;;640.20;1766.40;;;;;;5079456;28;20090;-73
2023/06/29 08:54:45;;;;;;;4.13;1.90;;;640.40;1792.00;;;;;;5083841;28;20040;-73
2023/06/29 08:57:10;;;;;;;5.13;2.05;;;640.60;1792.00;;;;;;5082657;28;20024;-73
2023/06/29 08:59:40;;;;;;;5.68;2.17;;;640.70;1740.80;;;;;;5088655;28;20024;-71
2023/06/29 09:02:06;;;;;;;9.27;2.13;;;640.80;1689.60;;;;;;5082297;28;20484;-74
2023/06/29 09:04:32;;;;;;;4.85;2.20;;;640.90;1664.00;;;;;;5082690;28;20032;-72
2023/06/29 09:06:58;;;;;;;5.97;2.42;;;665.60;1689.60;;;;;;5077468;28;20103;-74
2023/06/29 09:09:24;;;;;;;6.65;2.55;;;665.70;1664.00;;;;;;5083131;28;20119;-73
2023/06/29 09:11:51;;;;;;;3.88;2.30;;;665.70;1612.80;;;;;;5084753;28;20012;-74
2023/06/29 09:14:17;;;;;;;5.10;2.22;;;665.70;1587.20;;;;;;5077069;28;20035;-72
2023/06/29 09:16:50;;;;;;;2.90;1.98;;;665.80;1612.80;;;;;;5079852;28;20024;-71
2023/06/29 09:19:17;;;;;;;4.63;2.10;;;665.60;1612.80;;;;;;5083919;28;20023;-72
2023/06/29 09:21:50;;;;;;;3.63;2.17;;;640.90;1510.40;;;;;;5075517;28;20104;-70
2023/06/29 09:24:19;;;;;;;6.45;2.50;;;665.90;1561.60;;;;;;5083611;28;20028;-72
2023/06/29 09:26:54;;;;;;;4.15;2.15;;;665.90;1561.60;;;;;;5075437;28;20017;-72
2023/06/29 09:29:20;;;;;;;5.30;1.90;;;665.80;1587.20;;;;;;5076836;28;20032;-71
2023/06/29 09:31:56;;;;;;;6.95;2.13;;;665.80;1587.20;;;;;;5078140;28;20067;-73
2023/06/29 09:34:25;;;;;;;5.13;2.13;;;665.90;1587.20;;;;;;5081977;28;20021;-72
2023/06/29 09:36:51;;;;;;;5.25;2.53;;;666.20;1536.00;;;;;;5076860;28;20127;-72
2023/06/29 09:39:17;;;;;;;4.38;3.13;;;666.30;1587.20;;;;;;5082711;28;20347;-74
2023/06/29 09:41:51;;;;;;;2.83;1.75;;;691.20;1561.60;;;;;;5079966;28;20382;-73
2023/06/29 09:44:19;;;;;;;3.90;2.30;;;666.30;1612.80;;;;;;5073492;28;20025;-71
2023/06/29 09:47:04;;;;;;;6.43;3.30;;;666.00;1561.60;;;;;;5081147;28;20067;-71
2023/06/29 09:49:31;;;;;;;5.30;3.22;;;665.80;1561.60;;;;;;5082204;28;20481;-73
2023/06/29 09:52:04;;;;;;;4.20;2.35;;;666.20;1536.00;;;;;;5077868;28;20512;-74
2023/06/29 09:54:36;;;;;;;4.70;2.10;;;691.20;1510.40;;;;;;5080397;28;20074;-75
2023/06/29 09:57:07;;;;;;;5.72;2.30;;;691.30;1484.80;;;;;;5083973;28;20036;-73
2023/06/29 09:59:39;;;;;;;7.72;2.60;;;666.40;1510.40;;;;;;5077856;28;20013;-76
2023/06/29 10:02:06;;;;;;;4.32;3.03;;;666.20;1536.00;;;;;;5080223;28;20028;-72
2023/06/29 10:04:32;;;;;;;5.78;1.98;;;666.00;1561.60;;;;;;5075697;28;20028;-72
2023/06/29 10:07:08;;;;;;;5.03;2.22;;;666.30;1536.00;;;;;;5081474;28;20021;-72
2023/06/29 10:09:39;;;;;;;4.38;2.47;;;691.20;1510.40;;;;;;5076112;28;20551;-71
2023/06/29 10:12:10;;;;;;;3.40;2.20;;;691.20;1484.80;;;;;;5075841;28;20086;-71
2023/06/29 10:14:37;;;;;;;5.93;2.15;;;691.60;1510.40;;;;;;5069962;28;20096;-72
2023/06/29 10:17:08;;;;;;;3.78;2.35;;;691.70;1484.80;;;;;;5083637;28;20080;-72
2023/06/29 10:19:36;;;;;;;4.32;2.22;;;692.00;1356.80;;;;;;5077741;28;20048;-73
2023/06/29 10:22:11;;;;;;;5.20;2.45;;;716.80;1382.40;;;;;;5076076;28;20025;-72
2023/06/29 10:24:47;;;;;;;3.97;2.40;;;716.90;1408.00;;;;;;5082698;28;20066;-74
2023/06/29 10:27:15;;;;;;;3.83;2.33;;;717.00;1408.00;;;;;;5087560;28;20075;-76
2023/06/29 10:29:45;;;;;;;3.45;1.92;;;717.20;1408.00;;;;;;5080952;28;20535;-72
2023/06/29 10:32:32;;;;;;;3.20;1.85;;;717.40;1433.60;;;;;;5081119;28;20076;-73
2023/06/29 10:35:09;;;;;;;5.43;2.20;;;717.40;1408.00;;;;;;5086226;28;20069;-72
2023/06/29 10:37:35;;;;;;;5.07;2.47;;;717.50;1356.80;;;;;;5078863;28;20020;-72
2023/06/29 10:40:05;;;;;;;4.07;2.03;;;717.60;1356.80;;;;;;5082195;28;20073;-72
2023/06/29 10:42:36;;;;;;;5.82;1.95;;;717.70;1331.20;;;;;;5081964;28;20473;-70
2023/06/29 10:45:02;;;;;;;5.22;2.67;;;742.40;1331.20;;;;;;5075570;28;20035;-72
2023/06/29 10:47:37;;;;;;;9.43;2.13;;;742.40;1331.20;;;;;;5084783;28;20443;-75
2023/06/29 10:50:08;;;;;;;5.75;2.20;;;742.40;1331.20;;;;;;5081613;28;20029;-72
2023/06/29 10:52:34;;;;;;;9.73;2.78;;;742.40;1382.40;;;;;;5082596;28;20059;-72
2023/06/29 10:55:16;;;;;;;15.68;2.90;;;717.50;1356.80;;;;;;5082535;28;20045;-71
2023/06/29 10:57:51;;;;;;;5.32;1.83;;;742.40;1356.80;;;;;;5085822;28;20024;-70
2023/06/29 11:00:17;;;;;;;5.95;2.20;;;717.70;1331.20;;;;;;5082108;28;20024;-71
2023/06/29 11:02:44;;;;;;;3.38;1.88;;;717.70;1331.20;;;;;;5084671;28;20062;-73
2023/06/29 11:05:16;;;;;;;7.25;2.25;;;717.50;1356.80;;;;;;5086121;28;20132;-76
2023/06/29 11:07:43;;;;;;;2.47;1.80;;;717.10;1331.20;;;;;;5078339;28;20052;-71
2023/06/29 11:10:10;;;;;;;6.05;2.30;;;717.60;1331.20;;;;;;5081647;28;21017;-71
2023/06/29 11:12:40;;;;;;;5.30;2.20;;;742.40;1331.20;;;;;;5083465;28;20099;-73
2023/06/29 11:15:13;;;;;;;4.40;2.40;;;;;;;;;;5082509;28;20032;-72
2023/06/29 11:17:40;;;;;;;3.15;2.00;;;;;;;;;;5081346;28;20470;-71
2023/06/29 11:20:06;;;;;;;3.97;1.92;;;;;;;;;;5085408;28;20043;-73
2023/06/29 11:22:33;;;;;;;6.00;2.50;;;;;;;;;;5083014;28;20363;-70
2023/06/29 11:24:59;;;;;;;4.70;2.22;;;717.30;1382.40;;;;;;5082098;28;20071;-72
2023/06/29 11:27:24;;;;;;;4.57;2.25;;;717.10;1408.00;;;;;;5076147;28;20035;-72
2023/06/29 11:29:54;;;;;;;4.57;2.40;;;717.20;1408.00;;;;;;5083886;28;20032;-76
2023/06/29 11:32:20;;;;;;;4.85;2.22;;;717.70;1356.80;;;;;;5077335;28;20023;-72
2023/06/29 11:34:46;;;;;;;4.53;2.40;;;742.50;1356.80;;;;;;5085798;28;20024;-74
2023/06/29 11:37:11;;;;;;;5.50;1.98;;;742.80;1331.20;;;;;;5080831;28;20020;-71
2023/06/29 11:39:37;;;;;;;6.65;2.03;;;742.90;1331.20;;;;;;5082777;28;20032;-71
2023/06/29 11:42:17;;;;;;;6.93;2.40;;;742.90;1305.60;;;;;;5077504;28;20103;-70
2023/06/29 11:44:44;;;;;;;4.38;1.75;;;742.90;1254.40;;;;;;5075349;28;20017;-73
2023/06/29 11:47:12;;;;;;;3.67;2.13;;;742.90;1280.00;;;;;;5075458;28;20486;-71
2023/06/29 11:49:38;;;;;;;4.85;2.25;;;743.10;1280.00;;;;;;5081456;28;20028;-71
2023/06/29 11:52:05;;;;;;;3.38;1.90;;;743.20;1254.40;;;;;;5078881;28;20027;-72
2023/06/29 11:54:32;;;;;;;6.97;1.95;;;743.30;1254.40;;;;;;5077664;28;20532;-71
2023/06/29 11:56:58;;;;;;;3.85;1.83;;;768.00;1254.40;;;;;;5082256;28;20040;-70
2023/06/29 11:59:24;;;;;;;3.47;2.00;;;743.30;1228.80;;;;;;5083559;28;20028;-70
2023/06/29 12:01:50;;;;;;;3.50;1.67;;;743.00;1228.80;;;;;;5083044;28;20436;-70
2023/06/29 12:04:16;;;;;;;5.88;2.10;;;743.30;1228.80;;;;;;5081293;28;20027;-71
2023/06/29 12:06:51;;;;;;;3.83;1.77;;;742.90;1254.40;;;;;;5076103;28;20024;-71
2023/06/29 12:09:17;;;;;;;;;;;742.50;1331.20;;;;;;5072721;28;20028;-71
2023/06/29 12:11:43;;;;;;;3.03;1.77;;;717.60;1280.00;;;;;;5077416;28;19912;-76
2023/06/29 12:14:09;;;;;;;2.83;1.58;;;717.50;1356.80;;;;;;5074907;28;20024;-71
2023/06/29 12:16:41;;;;;;;3.00;2.00;;;717.40;1305.60;;;;;;5077349;28;20028;-71
2023/06/29 12:19:11;;;;;;;2.85;1.77;;;742.40;1305.60;;;;;;5083236;28;20021;-71